9A5

Barwick Lafayette Airport

Lafayette, Georgia, USA
METAR K9A5 210955Z AUTO 00000KT 10SM SCT060 BKN075 BKN110 22/22 A2990 RMK AO2 T02160216
Observed Flight Rules
Jun-21 @ 09:55 UTC (15 minutes ago) Visual Flight Rules
Visibility Clouds
10 miles
  • Scattered at 6,000' AGL
  • Broken at 7,500' AGL
  • Broken at 11,000' AGL
Temperatures Readings
Current 22°C / 72°F
Dewpoint 22°C / 72°F
Humidity 100%
Altimeter 29.9" Hg
Pressure 1013 hPa
Elevation 237
METAR K9A5 210955Z AUTO 00000KT 10SM SCT060 BKN075 BKN110 22/22 A2990 RMK AO2 T02160216
Observed Flight Rules
Jun-21 @ 09:55 UTC
(15 minutes ago)
VFR
Clouds
  • Scattered at 6,000' AGL
  • Broken at 7,500' AGL
  • Broken at 11,000' AGL
Temperature Dewpoint
22°C / 72°F 22°C / 72°F
Humidity Altimeter Pressure
100% 29.9" Hg 1013 hPa